createdAt,value
2023-06-18T00:00:13.574Z,16.25
2023-06-18T00:01:16.662Z,17.50
2023-06-18T00:02:26.384Z,18.00
2023-06-18T00:03:29.405Z,17.75
2023-06-18T00:04:33.142Z,19.00
2023-06-18T00:05:36.272Z,17.00
2023-06-18T00:06:39.739Z,17.00
2023-06-18T00:07:49.303Z,18.00
2023-06-18T00:08:52.196Z,17.00
2023-06-18T00:09:55.204Z,14.75
2023-06-18T00:10:58.095Z,14.00
2023-06-18T00:12:01.145Z,14.00
2023-06-18T00:13:10.307Z,14.75
2023-06-18T00:14:13.173Z,13.00
2023-06-18T00:15:16.057Z,14.75
2023-06-18T00:16:18.952Z,16.00
2023-06-18T00:17:25.179Z,17.25
2023-06-18T00:18:34.301Z,16.00
2023-06-18T00:19:37.609Z,15.00
2023-06-18T00:20:40.523Z,17.50
2023-06-18T00:21:43.530Z,16.00
2023-06-18T00:22:46.508Z,16.00
2023-06-18T00:23:56.353Z,16.00
2023-06-18T00:24:59.232Z,15.00
2023-06-18T00:26:02.337Z,16.00
2023-06-18T00:27:05.313Z,16.50
2023-06-18T00:28:08.335Z,17.75
2023-06-18T00:29:17.327Z,16.00
2023-06-18T00:30:26.320Z,16.00
2023-06-18T00:31:29.761Z,15.00
2023-06-18T00:32:33.606Z,14.00
2023-06-18T00:33:36.594Z,14.00
2023-06-18T00:34:39.657Z,15.75
2023-06-18T00:36:09.340Z,16.00
2023-06-18T00:37:15.065Z,14.50
2023-06-18T00:38:19.142Z,15.50
2023-06-18T00:39:22.660Z,15.50
2023-06-18T00:40:25.596Z,15.50
2023-06-18T00:41:36.560Z,16.00
2023-06-18T00:42:39.492Z,17.00
2023-06-18T00:43:42.378Z,16.75
2023-06-18T00:44:45.298Z,16.00
2023-06-18T00:45:48.846Z,15.50
2023-06-18T00:47:00.463Z,15.50
2023-06-18T00:48:23.375Z,15.00
2023-06-18T00:49:26.446Z,15.25
2023-06-18T00:50:31.386Z,15.00
2023-06-18T00:51:55.251Z,15.00
2023-06-18T00:53:08.420Z,14.00
2023-06-18T00:54:11.912Z,15.00
2023-06-18T00:55:18.779Z,15.00
2023-06-18T00:56:24.462Z,16.75
2023-06-18T00:57:34.472Z,16.00
2023-06-18T00:58:37.991Z,17.00
2023-06-18T00:59:44.826Z,17.50
2023-06-18T01:00:50.694Z,15.50
2023-06-18T01:01:57.153Z,16.00
2023-06-18T01:03:09.409Z,15.00
2023-06-18T01:04:13.754Z,16.50
2023-06-18T01:05:17.560Z,15.75
2023-06-18T01:06:21.823Z,14.00
2023-06-18T01:07:27.409Z,13.50
2023-06-18T01:08:42.424Z,13.00
2023-06-18T01:09:45.516Z,13.00
2023-06-18T01:10:48.766Z,11.00
2023-06-18T01:11:53.992Z,12.00
2023-06-18T01:13:00.372Z,13.75
2023-06-18T01:14:10.507Z,17.00
2023-06-18T01:15:13.523Z,14.00
2023-06-18T01:16:23.457Z,14.25
2023-06-18T01:17:32.043Z,16.00
2023-06-18T01:18:38.353Z,12.75
2023-06-18T01:19:54.313Z,14.00
2023-06-18T01:21:04.464Z,16.00
2023-06-18T01:22:18.458Z,14.00
2023-06-18T01:23:32.660Z,14.50
2023-06-18T01:24:40.859Z,16.00
2023-06-18T01:25:46.248Z,14.00
2023-06-18T01:26:55.452Z,14.00
2023-06-18T01:27:58.807Z,14.00
2023-06-18T01:29:02.796Z,14.00
2023-06-18T01:30:06.990Z,14.00
2023-06-18T01:31:16.498Z,14.00
2023-06-18T01:32:20.169Z,15.75
2023-06-18T01:33:23.932Z,16.75
2023-06-18T01:34:27.413Z,15.50
2023-06-18T01:35:30.394Z,14.50
2023-06-18T01:36:43.470Z,15.00
2023-06-18T01:38:01.173Z,16.00
2023-06-18T01:39:24.133Z,13.00
2023-06-18T01:41:24.309Z,12.75
2023-06-18T01:42:38.493Z,12.00
2023-06-18T01:43:51.668Z,10.50
2023-06-18T01:45:13.836Z,11.50
2023-06-18T01:46:23.589Z,12.00
2023-06-18T01:47:29.407Z,12.50
2023-06-18T01:48:58.510Z,12.50
2023-06-18T01:50:09.727Z,10.00
2023-06-18T01:51:14.100Z,8.50
2023-06-18T01:52:19.807Z,9.00
2023-06-18T01:53:35.514Z,12.00
2023-06-18T01:54:38.885Z,11.50
2023-06-18T01:55:44.228Z,12.00
2023-06-18T01:56:47.262Z,12.00
2023-06-18T01:57:50.915Z,11.00
2023-06-18T01:59:00.521Z,12.00
2023-06-18T02:00:04.210Z,12.50
2023-06-18T02:01:07.602Z,14.00
2023-06-18T02:02:16.575Z,11.00
2023-06-18T02:03:20.494Z,10.25
2023-06-18T02:04:23.430Z,12.25
2023-06-18T02:05:26.292Z,10.00
2023-06-18T02:06:29.186Z,13.00
2023-06-18T02:07:38.534Z,10.00
2023-06-18T02:08:41.802Z,11.25
2023-06-18T02:09:44.744Z,10.00
2023-06-18T02:10:47.881Z,10.00
2023-06-18T02:11:50.780Z,12.00
2023-06-18T02:13:00.552Z,12.25
2023-06-18T02:14:03.428Z,12.75
2023-06-18T02:15:06.812Z,11.75
2023-06-18T02:16:09.780Z,14.75
2023-06-18T02:17:19.575Z,13.75
2023-06-18T02:18:22.556Z,12.25
2023-06-18T02:19:25.480Z,11.75
2023-06-18T02:20:28.628Z,11.00
2023-06-18T02:21:32.523Z,10.50
2023-06-18T02:22:42.603Z,11.00
2023-06-18T02:23:45.563Z,11.50
2023-06-18T02:24:48.440Z,8.75
2023-06-18T02:25:51.334Z,9.75
2023-06-18T02:26:54.228Z,12.00
2023-06-18T02:28:07.608Z,11.00
2023-06-18T02:29:10.628Z,11.00
2023-06-18T02:30:14.800Z,11.00
2023-06-18T02:31:17.667Z,12.00
2023-06-18T02:32:27.604Z,11.00
2023-06-18T02:33:30.639Z,11.00
2023-06-18T02:34:34.358Z,9.00
2023-06-18T02:35:37.249Z,9.00
2023-06-18T02:36:41.132Z,10.00
2023-06-18T02:37:51.620Z,10.00
2023-06-18T02:38:54.607Z,9.00
2023-06-18T02:39:57.459Z,12.50
2023-06-18T02:41:00.463Z,12.00
2023-06-18T02:42:03.580Z,12.50
2023-06-18T02:43:14.623Z,13.00
2023-06-18T02:44:17.491Z,12.75
2023-06-18T02:45:23.227Z,10.50
2023-06-18T02:46:26.115Z,10.00
2023-06-18T02:47:29.051Z,11.00
2023-06-18T02:48:38.630Z,11.00
2023-06-18T02:50:01.657Z,11.50
2023-06-18T02:51:04.648Z,11.25
2023-06-18T02:52:07.906Z,11.00
2023-06-18T02:53:10.786Z,10.00
2023-06-18T02:54:20.649Z,10.50
2023-06-18T02:55:24.955Z,10.00
2023-06-18T02:56:30.823Z,7.25
2023-06-18T02:57:33.765Z,11.00
2023-06-18T02:58:38.337Z,12.00
2023-06-18T02:59:47.646Z,11.50
2023-06-18T03:00:50.612Z,9.75
2023-06-18T03:01:55.788Z,9.00
2023-06-18T03:03:06.705Z,9.75
2023-06-18T03:04:10.188Z,12.00
2023-06-18T03:05:13.169Z,11.00
2023-06-18T03:06:16.206Z,10.75
2023-06-18T03:07:20.217Z,9.25
2023-06-18T03:08:29.760Z,8.50
2023-06-18T03:09:32.634Z,8.50
2023-06-18T03:10:35.508Z,8.50
2023-06-18T03:11:38.460Z,9.50
2023-06-18T03:12:41.482Z,8.00
2023-06-18T03:13:50.675Z,10.00
2023-06-18T03:14:53.555Z,12.00
2023-06-18T03:15:57.942Z,13.25
2023-06-18T03:17:11.695Z,11.50
2023-06-18T03:18:14.791Z,10.50
2023-06-18T03:19:18.010Z,11.50
2023-06-18T03:20:21.745Z,13.00
2023-06-18T03:21:24.819Z,12.25
2023-06-18T03:22:34.756Z,13.25
2023-06-18T03:23:38.550Z,10.50
2023-06-18T03:24:43.197Z,9.00
2023-06-18T03:25:48.175Z,9.00
2023-06-18T03:26:51.356Z,11.50
2023-06-18T03:28:00.770Z,13.00
2023-06-18T03:29:03.661Z,16.00
2023-06-18T03:30:06.976Z,12.50
2023-06-18T03:31:10.649Z,12.00
2023-06-18T03:32:13.641Z,10.25
2023-06-18T03:33:23.744Z,12.00
2023-06-18T03:34:26.845Z,11.00
2023-06-18T03:35:29.891Z,9.25
2023-06-18T03:36:42.166Z,11.00
2023-06-18T03:37:45.464Z,11.50
2023-06-18T03:38:54.726Z,11.50
2023-06-18T03:39:57.623Z,13.00
2023-06-18T03:41:00.516Z,12.00
2023-06-18T03:42:03.383Z,11.50
2023-06-18T03:43:06.276Z,12.00
2023-06-18T03:44:15.753Z,11.00
2023-06-18T03:45:18.633Z,11.50
2023-06-18T03:46:21.602Z,11.50
2023-06-18T03:47:30.821Z,12.25
2023-06-18T03:48:34.752Z,12.50
2023-06-18T03:49:37.682Z,12.50
2023-06-18T03:51:00.767Z,13.50
2023-06-18T03:52:03.650Z,12.00
2023-06-18T03:53:12.795Z,11.00
2023-06-18T03:54:15.703Z,10.50
2023-06-18T03:55:18.709Z,10.25
2023-06-18T03:56:22.642Z,11.00
2023-06-18T03:57:26.435Z,12.50
2023-06-18T03:58:35.765Z,11.00
2023-06-18T03:59:38.899Z,11.00
2023-06-18T04:00:41.818Z,11.75
2023-06-18T04:01:44.930Z,12.00
2023-06-18T04:02:54.844Z,11.50
2023-06-18T04:03:58.566Z,13.00
2023-06-18T04:05:01.471Z,11.00
2023-06-18T04:06:04.405Z,10.00
2023-06-18T04:07:07.300Z,11.75
2023-06-18T04:08:16.812Z,12.50
2023-06-18T04:09:20.591Z,13.00
2023-06-18T04:10:23.927Z,12.00
2023-06-18T04:11:26.937Z,12.00
2023-06-18T04:12:29.859Z,12.00
2023-06-18T04:13:39.842Z,13.00
2023-06-18T04:14:42.933Z,13.00
2023-06-18T04:15:46.327Z,11.00
2023-06-18T04:16:49.240Z,12.50
2023-06-18T04:17:58.849Z,13.00
2023-06-18T04:19:01.881Z,12.50
2023-06-18T04:20:05.164Z,16.00
2023-06-18T04:21:08.072Z,14.00
2023-06-18T04:22:10.962Z,14.00
2023-06-18T04:23:23.834Z,16.50
2023-06-18T04:24:26.852Z,16.00
2023-06-18T04:25:29.784Z,17.00
2023-06-18T04:26:32.723Z,16.00
2023-06-18T04:27:35.679Z,16.00
2023-06-18T04:28:44.881Z,15.00
2023-06-18T04:29:47.786Z,15.75
2023-06-18T04:30:51.214Z,15.00
2023-06-18T04:31:54.087Z,15.00
2023-06-18T04:32:57.536Z,13.00
2023-06-18T04:34:06.890Z,16.00
2023-06-18T04:35:10.415Z,17.00
2023-06-18T04:36:13.655Z,17.50
2023-06-18T04:37:17.300Z,17.25
2023-06-18T04:38:20.305Z,16.00
2023-06-18T04:39:29.940Z,16.50
2023-06-18T04:40:33.191Z,15.00
2023-06-18T04:41:36.041Z,17.00
2023-06-18T04:42:40.847Z,18.00
2023-06-18T04:43:44.265Z,16.00
2023-06-18T04:44:53.980Z,15.25
2023-06-18T04:45:56.912Z,14.00
2023-06-18T04:46:59.758Z,12.50
2023-06-18T04:48:05.506Z,11.25
2023-06-18T04:49:08.477Z,12.50
2023-06-18T04:50:17.966Z,13.50
2023-06-18T04:51:40.957Z,16.00
2023-06-18T04:52:43.888Z,15.00
2023-06-18T04:53:46.903Z,15.50
2023-06-18T04:54:49.958Z,13.75
2023-06-18T04:55:59.979Z,14.00
2023-06-18T04:57:03.067Z,14.00
2023-06-18T04:58:09.489Z,16.00
2023-06-18T04:59:13.963Z,16.00
2023-06-18T05:00:18.808Z,15.50
2023-06-18T05:01:28.984Z,16.00
2023-06-18T05:02:32.092Z,14.00
2023-06-18T05:03:42.043Z,15.00
2023-06-18T05:04:45.042Z,13.25
2023-06-18T05:05:48.215Z,16.50
2023-06-18T05:06:51.101Z,14.00
2023-06-18T05:07:54.398Z,16.00
2023-06-18T05:09:04.034Z,16.00
2023-06-18T05:10:07.549Z,14.25
2023-06-18T05:11:10.395Z,15.50
2023-06-18T05:12:13.689Z,16.50
2023-06-18T05:13:36.681Z,16.50
2023-06-18T05:14:46.042Z,16.50
2023-06-18T05:15:49.601Z,16.50
2023-06-18T05:16:52.635Z,17.00
2023-06-18T05:17:55.708Z,16.25
2023-06-18T05:19:05.029Z,15.25
2023-06-18T05:20:08.981Z,14.50
2023-06-18T05:21:11.907Z,16.25
2023-06-18T05:22:14.806Z,17.00
2023-06-18T05:23:17.768Z,18.00
2023-06-18T05:24:27.066Z,17.00
2023-06-18T05:25:30.066Z,14.00
2023-06-18T05:26:33.550Z,16.25
2023-06-18T05:27:36.788Z,16.75
2023-06-18T05:28:39.660Z,17.00
2023-06-18T05:29:49.047Z,16.00
2023-06-18T05:30:52.068Z,15.75
2023-06-18T05:31:54.945Z,18.00
2023-06-18T05:32:57.880Z,18.00
2023-06-18T05:34:07.109Z,17.00
2023-06-18T05:35:10.160Z,15.00
2023-06-18T05:36:13.093Z,14.00
2023-06-18T05:37:15.983Z,14.00
2023-06-18T05:38:18.978Z,15.50
2023-06-18T05:39:28.088Z,13.00
2023-06-18T05:40:31.068Z,14.00
2023-06-18T05:41:33.930Z,15.00
2023-06-18T05:42:37.379Z,16.00
2023-06-18T05:43:40.233Z,15.00
2023-06-18T05:44:50.111Z,14.00
2023-06-18T05:45:53.073Z,13.00
2023-06-18T05:46:56.042Z,15.00
2023-06-18T05:47:59.076Z,14.00
2023-06-18T05:49:09.088Z,14.25
2023-06-18T05:50:12.122Z,16.00
2023-06-18T05:51:15.063Z,13.00
2023-06-18T05:52:38.102Z,12.00
2023-06-18T05:53:47.551Z,14.00
2023-06-18T05:54:57.307Z,17.00
2023-06-18T05:56:00.220Z,14.50
2023-06-18T05:57:03.163Z,11.75
2023-06-18T05:58:06.105Z,15.00
2023-06-18T05:59:09.145Z,14.00
2023-06-18T06:00:20.323Z,17.00
2023-06-18T06:01:23.464Z,17.75
2023-06-18T06:02:26.333Z,16.00
2023-06-18T06:03:29.448Z,18.00
2023-06-18T06:04:39.130Z,14.00
2023-06-18T06:05:42.942Z,12.00
2023-06-18T06:06:45.924Z,11.25
2023-06-18T06:07:48.864Z,11.00
2023-06-18T06:08:51.782Z,16.00
2023-06-18T06:10:01.151Z,16.75
2023-06-18T06:11:04.053Z,18.00
2023-06-18T06:12:08.265Z,16.00
2023-06-18T06:13:11.908Z,17.00
2023-06-18T06:14:14.862Z,15.00
2023-06-18T06:15:25.143Z,17.00
2023-06-18T06:16:28.078Z,17.00
2023-06-18T06:17:31.491Z,17.25
2023-06-18T06:18:34.497Z,16.00
2023-06-18T06:19:37.711Z,16.25
2023-06-18T06:20:47.171Z,14.00
2023-06-18T06:21:50.059Z,15.00
2023-06-18T06:22:54.382Z,16.00
2023-06-18T06:23:58.862Z,16.00
2023-06-18T06:25:01.796Z,15.00
2023-06-18T06:26:11.201Z,14.00
2023-06-18T06:27:14.256Z,14.00
2023-06-18T06:28:17.158Z,15.75
2023-06-18T06:29:20.050Z,17.00
2023-06-18T06:30:23.200Z,16.00
2023-06-18T06:31:33.198Z,16.00
2023-06-18T06:32:38.107Z,16.75
2023-06-18T06:33:41.098Z,16.00
2023-06-18T06:34:44.560Z,14.75
2023-06-18T06:35:48.557Z,15.00
2023-06-18T06:36:59.278Z,16.00
2023-06-18T06:38:02.291Z,16.00
2023-06-18T06:39:05.635Z,16.00
2023-06-18T06:40:09.336Z,17.00
2023-06-18T06:41:12.383Z,17.75
2023-06-18T06:42:22.211Z,16.00
2023-06-18T06:43:25.086Z,16.00
2023-06-18T06:44:27.948Z,14.50
2023-06-18T06:45:30.959Z,15.25
2023-06-18T06:46:33.889Z,14.00
2023-06-18T06:47:43.284Z,13.75
2023-06-18T06:48:46.280Z,17.00
2023-06-18T06:49:49.249Z,17.00
2023-06-18T06:50:52.152Z,17.00
2023-06-18T06:51:58.395Z,17.25
2023-06-18T06:53:14.247Z,17.00
2023-06-18T06:54:25.222Z,16.00
2023-06-18T06:55:28.141Z,18.75
2023-06-18T06:56:31.072Z,17.00
2023-06-18T06:57:33.955Z,16.50
2023-06-18T06:58:44.297Z,13.00
2023-06-18T06:59:47.144Z,14.00
2023-06-18T07:00:50.749Z,13.50
2023-06-18T07:01:53.676Z,15.50
2023-06-18T07:02:57.072Z,15.00
2023-06-18T07:04:06.274Z,14.75
2023-06-18T07:05:16.302Z,15.00
2023-06-18T07:06:19.222Z,15.75
2023-06-18T07:07:22.092Z,14.00
2023-06-18T07:08:25.015Z,12.00
2023-06-18T07:09:28.419Z,13.00
2023-06-18T07:10:38.322Z,13.00
2023-06-18T07:11:42.819Z,12.00
2023-06-18T07:12:45.739Z,11.00
2023-06-18T07:13:48.617Z,13.00
2023-06-18T07:14:51.578Z,12.00
2023-06-18T07:16:01.372Z,14.00
2023-06-18T07:17:04.808Z,12.00
2023-06-18T07:18:07.990Z,11.00
2023-06-18T07:19:10.916Z,13.00
2023-06-18T07:20:20.571Z,12.25
2023-06-18T07:21:23.710Z,10.00
2023-06-18T07:22:26.569Z,12.00
2023-06-18T07:23:29.500Z,10.00
2023-06-18T07:24:32.531Z,10.00
2023-06-18T07:25:42.409Z,13.25
2023-06-18T07:26:45.449Z,12.00
2023-06-18T07:27:49.008Z,12.00
2023-06-18T07:28:52.051Z,12.00
2023-06-18T07:29:55.378Z,12.00
2023-06-18T07:31:04.470Z,11.75
2023-06-18T07:32:07.574Z,12.00
2023-06-18T07:33:10.456Z,10.00
2023-06-18T07:34:13.437Z,11.00
2023-06-18T07:35:16.547Z,12.00
2023-06-18T07:36:26.402Z,12.00
2023-06-18T07:37:29.295Z,11.00
2023-06-18T07:38:32.678Z,9.00
2023-06-18T07:39:35.625Z,10.00
2023-06-18T07:40:40.061Z,12.50
2023-06-18T07:41:50.632Z,13.50
2023-06-18T07:42:53.860Z,16.00
2023-06-18T07:43:56.877Z,15.00
2023-06-18T07:44:59.841Z,16.00
2023-06-18T07:46:02.799Z,13.75
2023-06-18T07:47:12.458Z,13.25
2023-06-18T07:48:15.354Z,12.00
2023-06-18T07:49:19.147Z,9.75
2023-06-18T07:50:22.491Z,12.00
2023-06-18T07:51:25.536Z,9.00
2023-06-18T07:52:35.470Z,11.50
2023-06-18T07:53:58.454Z,11.50
2023-06-18T07:55:01.374Z,12.00
2023-06-18T07:56:04.312Z,9.00
2023-06-18T07:57:07.471Z,8.75
2023-06-18T07:58:16.480Z,9.75
2023-06-18T07:59:19.384Z,11.00
2023-06-18T08:00:22.618Z,10.00
2023-06-18T08:01:25.794Z,9.00
2023-06-18T08:02:28.926Z,10.00
2023-06-18T08:03:38.519Z,8.00
2023-06-18T08:04:41.661Z,9.75
2023-06-18T08:05:44.532Z,10.50
2023-06-18T08:06:50.600Z,8.00
2023-06-18T08:07:53.470Z,8.00
2023-06-18T08:09:02.515Z,9.00
2023-06-18T08:10:05.883Z,7.00
2023-06-18T08:11:08.765Z,9.00
2023-06-18T08:12:13.469Z,9.00
2023-06-18T08:13:16.365Z,9.75
2023-06-18T08:14:25.506Z,8.00
2023-06-18T08:15:28.435Z,9.00
2023-06-18T08:16:31.448Z,7.00
2023-06-18T08:17:34.354Z,7.00
2023-06-18T08:18:37.350Z,6.00
2023-06-18T08:19:47.523Z,8.00
2023-06-18T08:20:50.633Z,9.00
2023-06-18T08:21:55.512Z,6.75
2023-06-18T08:22:58.632Z,7.00
2023-06-18T08:24:01.572Z,5.00
2023-06-18T08:25:11.553Z,6.50
2023-06-18T08:26:14.390Z,10.00
2023-06-18T08:27:17.721Z,7.00
2023-06-18T08:28:20.655Z,6.00
2023-06-18T08:29:23.534Z,6.50
2023-06-18T08:30:33.581Z,6.00
2023-06-18T08:31:36.509Z,7.25
2023-06-18T08:32:40.986Z,6.00
2023-06-18T08:33:43.997Z,7.00
2023-06-18T08:34:48.209Z,4.50
2023-06-18T08:35:57.563Z,3.75
2023-06-18T08:37:01.585Z,6.00
2023-06-18T08:38:04.511Z,5.00
2023-06-18T08:39:07.994Z,6.00
2023-06-18T08:40:15.419Z,6.00
2023-06-18T08:41:25.574Z,5.00
2023-06-18T08:42:28.616Z,7.00
2023-06-18T08:43:35.179Z,6.00
2023-06-18T08:44:38.277Z,6.25
2023-06-18T08:45:41.346Z,7.00
2023-06-18T08:46:51.661Z,7.00
2023-06-18T08:48:02.706Z,6.00
2023-06-18T08:49:08.758Z,5.00
2023-06-18T08:50:12.158Z,7.50
2023-06-18T08:51:18.343Z,7.00
2023-06-18T08:52:29.662Z,6.00
2023-06-18T08:54:01.669Z,5.25
2023-06-18T08:55:05.642Z,6.00
2023-06-18T08:56:09.900Z,6.25
2023-06-18T08:57:23.541Z,5.00
2023-06-18T08:58:35.640Z,7.00
2023-06-18T08:59:40.295Z,6.00
2023-06-18T09:00:43.819Z,6.00
2023-06-18T09:01:49.085Z,7.00
2023-06-18T09:02:55.173Z,7.00
2023-06-18T09:04:06.636Z,7.00
2023-06-18T09:05:17.653Z,5.00
2023-06-18T09:06:20.951Z,6.50
2023-06-18T09:07:26.205Z,7.00
2023-06-18T09:08:29.794Z,6.00
2023-06-18T09:09:32.754Z,6.00
2023-06-18T09:10:48.655Z,3.75
2023-06-18T09:11:51.628Z,4.50
2023-06-18T09:12:54.716Z,5.50
2023-06-18T09:13:57.642Z,5.00
2023-06-18T09:15:00.616Z,5.00
2023-06-18T09:16:12.199Z,5.00
2023-06-18T09:18:41.788Z,4.00
2023-06-18T09:20:09.169Z,5.00
2023-06-18T09:22:29.718Z,5.00
2023-06-18T09:23:44.066Z,7.00
2023-06-18T09:25:09.397Z,4.00
2023-06-18T09:26:35.960Z,4.25
2023-06-18T09:27:47.717Z,5.00
2023-06-18T09:28:52.779Z,4.75
2023-06-18T09:29:56.158Z,5.00
2023-06-18T09:31:27.120Z,5.00
2023-06-18T09:32:37.763Z,3.00
2023-06-18T09:34:13.709Z,5.00
2023-06-18T09:35:18.955Z,7.00
2023-06-18T09:36:42.933Z,4.75
2023-06-18T09:38:23.252Z,4.50
2023-06-18T09:39:28.709Z,5.00
2023-06-18T09:41:01.988Z,5.00
2023-06-18T09:42:13.083Z,4.75
2023-06-18T09:45:04.870Z,5.50
2023-06-18T09:46:47.919Z,5.00
2023-06-18T09:47:57.365Z,6.00
2023-06-18T09:49:06.791Z,5.00
2023-06-18T09:50:13.063Z,5.00
2023-06-18T09:51:17.306Z,7.00
2023-06-18T09:52:20.309Z,8.50
2023-06-18T09:53:23.287Z,9.00
2023-06-18T09:54:52.841Z,8.00
2023-06-18T09:55:55.922Z,8.75
2023-06-18T09:57:01.553Z,8.00
2023-06-18T09:58:04.543Z,7.00
2023-06-18T09:59:14.932Z,6.00
2023-06-18T10:00:18.796Z,8.00
2023-06-18T10:01:22.555Z,4.00
2023-06-18T10:02:26.765Z,5.00
2023-06-18T10:03:29.877Z,7.00
2023-06-18T10:04:40.815Z,6.00
2023-06-18T10:05:43.886Z,7.00
2023-06-18T10:06:55.616Z,5.00
2023-06-18T10:07:59.616Z,6.00
2023-06-18T10:09:03.138Z,7.00
2023-06-18T10:10:13.822Z,7.00
2023-06-18T10:11:18.955Z,6.00
2023-06-18T10:12:22.326Z,7.75
2023-06-18T10:13:28.092Z,7.00
2023-06-18T10:14:33.376Z,7.50
2023-06-18T10:15:45.882Z,8.00
2023-06-18T10:16:52.031Z,8.00
2023-06-18T10:17:59.692Z,8.25
2023-06-18T10:19:16.359Z,8.00
2023-06-18T10:20:26.841Z,5.50
2023-06-18T10:21:34.037Z,7.25
2023-06-18T10:22:46.873Z,10.50
2023-06-18T10:23:56.131Z,9.25
2023-06-18T10:25:05.345Z,7.00
2023-06-18T10:26:14.869Z,8.00
2023-06-18T10:27:19.328Z,6.00
2023-06-18T10:28:22.942Z,7.00
2023-06-18T10:29:26.260Z,8.00
2023-06-18T10:30:36.868Z,6.75
2023-06-18T10:31:40.256Z,7.00
2023-06-18T10:32:45.357Z,7.00
2023-06-18T10:33:49.840Z,6.00
2023-06-18T10:34:54.698Z,6.25
2023-06-18T10:36:03.883Z,6.00
2023-06-18T10:37:07.092Z,7.00
2023-06-18T10:38:10.530Z,8.00
2023-06-18T10:39:24.640Z,7.00
2023-06-18T10:40:28.521Z,7.75
2023-06-18T10:41:37.889Z,7.00
2023-06-18T10:42:41.503Z,7.00
2023-06-18T10:43:44.841Z,8.50
2023-06-18T10:44:51.984Z,8.00
2023-06-18T10:46:23.143Z,8.00
2023-06-18T10:47:45.942Z,7.00
2023-06-18T10:49:20.037Z,7.00
2023-06-18T10:50:25.015Z,8.00
2023-06-18T10:51:36.955Z,8.50
2023-06-18T10:52:47.887Z,9.00
2023-06-18T10:54:22.559Z,7.50
2023-06-18T10:55:30.997Z,9.25
2023-06-18T10:56:44.969Z,8.00
2023-06-18T10:57:53.100Z,8.00
2023-06-18T10:58:56.030Z,8.00
2023-06-18T10:59:59.606Z,8.00
2023-06-18T11:01:02.925Z,8.25
2023-06-18T11:02:13.040Z,8.50
2023-06-18T11:03:17.942Z,8.00
2023-06-18T11:04:22.009Z,7.00
2023-06-18T11:05:34.071Z,8.50
2023-06-18T11:06:37.114Z,7.00
2023-06-18T11:07:48.958Z,8.25
2023-06-18T11:08:55.920Z,14.25
2023-06-18T11:10:00.707Z,18.75
2023-06-18T11:11:03.586Z,16.00
2023-06-18T11:12:20.058Z,13.00
2023-06-18T11:13:39.985Z,8.50
2023-06-18T11:14:42.875Z,8.75
2023-06-18T11:16:16.932Z,19.00
2023-06-18T11:17:20.270Z,12.75
2023-06-18T11:18:30.992Z,10.00
2023-06-18T11:19:34.104Z,9.25
2023-06-18T11:20:40.483Z,10.25
2023-06-18T11:21:48.098Z,11.00
2023-06-18T11:23:04.092Z,14.00
2023-06-18T11:24:11.612Z,10.50
2023-06-18T11:25:16.564Z,8.00
2023-06-18T11:26:21.577Z,8.00
2023-06-18T11:27:26.422Z,10.00
2023-06-18T11:28:36.100Z,10.75
2023-06-18T11:29:39.383Z,9.00
2023-06-18T11:30:48.484Z,9.00
2023-06-18T11:31:51.479Z,12.25
2023-06-18T11:32:54.432Z,11.75
2023-06-18T11:34:04.117Z,12.00
2023-06-18T11:35:11.733Z,15.00
2023-06-18T11:36:19.335Z,16.00
2023-06-18T11:37:27.161Z,12.25
2023-06-18T11:38:32.363Z,9.00
2023-06-18T11:39:43.130Z,9.25
2023-06-18T11:40:53.921Z,10.00
2023-06-18T11:42:20.640Z,9.00
2023-06-18T11:43:23.888Z,11.00
2023-06-18T11:44:34.113Z,12.50
2023-06-18T11:45:37.097Z,25.75
2023-06-18T11:46:42.966Z,28.50
2023-06-18T11:48:08.191Z,23.00
2023-06-18T11:49:24.144Z,20.25
2023-06-18T11:50:28.946Z,19.00
2023-06-18T11:51:33.573Z,15.50
2023-06-18T11:52:38.786Z,12.75
2023-06-18T11:53:42.106Z,12.75
2023-06-18T11:54:56.100Z,17.00
2023-06-18T11:55:59.017Z,11.00
2023-06-18T11:57:02.270Z,7.00
2023-06-18T11:58:05.200Z,8.00
2023-06-18T11:59:08.164Z,9.00
2023-06-18T12:00:20.169Z,12.50
2023-06-18T12:01:28.034Z,9.00
2023-06-18T12:02:31.370Z,7.75
2023-06-18T12:03:38.058Z,7.00
2023-06-18T12:04:41.996Z,9.75
2023-06-18T12:05:51.187Z,8.00
2023-06-18T12:06:54.065Z,10.00
2023-06-18T12:07:56.999Z,8.75
2023-06-18T12:09:10.947Z,8.00
2023-06-18T12:10:15.624Z,9.00
2023-06-18T12:11:36.247Z,9.50
2023-06-18T12:12:59.778Z,10.00
2023-06-18T12:14:13.222Z,9.25
2023-06-18T12:15:28.367Z,12.00
2023-06-18T12:16:39.258Z,11.00
2023-06-18T12:18:10.459Z,11.00
2023-06-18T12:19:14.345Z,10.25
2023-06-18T12:20:17.293Z,11.00
2023-06-18T12:21:27.240Z,12.00
2023-06-18T12:22:30.517Z,10.50
2023-06-18T12:23:33.676Z,12.00
2023-06-18T12:24:37.102Z,11.25
2023-06-18T12:25:40.862Z,10.00
2023-06-18T12:26:51.258Z,7.00
2023-06-18T12:27:54.371Z,9.75
2023-06-18T12:28:58.985Z,9.00
2023-06-18T12:30:02.982Z,10.00
2023-06-18T12:31:09.848Z,12.00
2023-06-18T12:32:21.271Z,8.50
2023-06-18T12:33:24.983Z,10.00
2023-06-18T12:34:28.799Z,12.00
2023-06-18T12:35:33.177Z,11.75
2023-06-18T12:36:36.107Z,14.00
2023-06-18T12:37:46.290Z,14.75
2023-06-18T12:38:49.220Z,12.50
2023-06-18T12:40:12.204Z,10.00
2023-06-18T12:41:25.702Z,11.75
2023-06-18T12:42:28.686Z,14.00
2023-06-18T12:43:38.298Z,13.25
2023-06-18T12:44:41.652Z,13.00
2023-06-18T12:45:44.938Z,13.00
2023-06-18T12:46:48.012Z,10.00
2023-06-18T12:48:11.267Z,9.00
2023-06-18T12:49:24.283Z,8.50
2023-06-18T12:50:27.100Z,10.25
2023-06-18T12:51:48.983Z,8.75
2023-06-18T12:52:52.965Z,10.50
2023-06-18T12:53:55.877Z,11.00
2023-06-18T12:55:11.317Z,13.00
2023-06-18T12:56:31.341Z,13.50
2023-06-18T12:57:34.368Z,13.00
2023-06-18T12:58:37.264Z,10.00
2023-06-18T12:59:40.402Z,10.25
2023-06-18T13:00:44.508Z,11.00
2023-06-18T13:01:57.332Z,14.25
2023-06-18T13:03:00.404Z,12.50
2023-06-18T13:04:03.419Z,13.00
2023-06-18T13:05:06.358Z,13.00
2023-06-18T13:06:09.607Z,15.00
2023-06-18T13:07:22.344Z,14.00
2023-06-18T13:08:25.360Z,13.00
2023-06-18T13:09:29.203Z,11.00
2023-06-18T13:10:32.049Z,12.00
2023-06-18T13:11:35.450Z,15.00
2023-06-18T13:12:44.395Z,13.25
2023-06-18T13:13:47.258Z,15.00
2023-06-18T13:14:50.398Z,14.75
2023-06-18T13:15:54.456Z,12.25
2023-06-18T13:17:01.822Z,13.00
2023-06-18T13:18:11.441Z,13.50
2023-06-18T13:19:14.348Z,13.00
2023-06-18T13:20:17.288Z,9.75
2023-06-18T13:21:20.350Z,12.00
2023-06-18T13:22:23.614Z,14.00
2023-06-18T13:23:33.372Z,15.25
2023-06-18T13:24:36.417Z,16.00
2023-06-18T13:25:40.393Z,14.50
2023-06-18T13:26:50.382Z,16.00
2023-06-18T13:27:53.365Z,13.50
2023-06-18T13:28:56.359Z,12.75
2023-06-18T13:29:59.433Z,12.00
2023-06-18T13:31:02.679Z,13.75
2023-06-18T13:32:12.386Z,14.00
2023-06-18T13:33:15.523Z,15.00
2023-06-18T13:34:18.881Z,15.25
2023-06-18T13:35:22.224Z,17.00
2023-06-18T13:36:25.668Z,16.00
2023-06-18T13:37:36.400Z,15.00
2023-06-18T13:38:39.383Z,14.50
2023-06-18T13:39:42.360Z,15.00
2023-06-18T13:40:45.466Z,15.00
2023-06-18T13:41:48.623Z,12.00
2023-06-18T13:42:59.546Z,10.50
2023-06-18T13:44:15.288Z,14.00
2023-06-18T13:45:21.577Z,13.00
2023-06-18T13:46:24.893Z,12.00
2023-06-18T13:47:28.919Z,12.75
2023-06-18T13:48:38.426Z,12.00
2023-06-18T13:49:48.715Z,13.00
2023-06-18T13:50:51.786Z,14.75
2023-06-18T13:51:54.664Z,15.25
2023-06-18T13:53:04.464Z,17.00
2023-06-18T13:54:07.484Z,18.00
2023-06-18T13:55:10.593Z,19.25
2023-06-18T13:56:13.904Z,19.75
2023-06-18T13:57:17.146Z,20.50
2023-06-18T13:58:27.473Z,17.00
2023-06-18T13:59:30.568Z,15.00
2023-06-18T14:00:34.030Z,17.75
2023-06-18T14:01:36.900Z,15.25
2023-06-18T14:02:39.816Z,16.25
2023-06-18T14:03:49.572Z,16.00
2023-06-18T14:04:52.938Z,15.00
2023-06-18T14:05:55.957Z,16.75
2023-06-18T14:06:58.879Z,18.00
2023-06-18T14:08:01.738Z,17.00
2023-06-18T14:09:11.517Z,18.00
2023-06-18T14:10:14.636Z,15.25
2023-06-18T14:11:17.812Z,13.00
2023-06-18T14:12:20.796Z,12.00
2023-06-18T14:13:23.703Z,10.50
2023-06-18T14:14:33.533Z,13.00
2023-06-18T14:15:36.682Z,10.50
2023-06-18T14:16:40.242Z,11.25
2023-06-18T14:17:48.386Z,9.50
2023-06-18T14:18:51.315Z,8.50
2023-06-18T14:20:01.592Z,9.00
2023-06-18T14:21:04.778Z,10.00
2023-06-18T14:22:08.456Z,11.00
2023-06-18T14:23:11.338Z,11.00
2023-06-18T14:24:14.743Z,11.25
2023-06-18T14:25:24.754Z,10.00
2023-06-18T14:26:28.174Z,11.25
2023-06-18T14:27:31.120Z,11.00
2023-06-18T14:28:33.977Z,9.00
2023-06-18T14:29:36.901Z,12.25